Burnaby, British Columbia

12:28 AM PDT on March 27, 2015 (GMT -0700)
Burnaby Mountain | | Change Station
CLOSE
Current Station
Personal Weather Station
Location: Burnaby, BC
Elevation: 459 ft
Nearby Weather Stations

Elev 459 ft 49.28 °N, 122.95 °W | Updated 1 minute ago

Mostly Cloudy
Mostly Cloudy
51.3 °F
Feels Like 51.3 °F
N
0.0
Wind Variable Wind from North
Gusts 1.0 mph

Today
High -- | Low -- °F
--% Chance of Precip.
Yesterday
High -- | Low -- °F
Precip. -- in
6:59 AM 7:35 PM
Waxing Crescent, 50% visible
Pressure 30.14 in
Visibility 30.0 miles
Clouds Few 19000 ft
Mostly Cloudy 25000 ft
Dew Point 50 °F
Humidity 96%
Rainfall 0.00 in
Snow Depth Not available.
UV 0 out of 12
Pollen Not available.
Air Quality Not available.
Flu Activity Not available.
METAR CYVR 270700Z 07004KT 30SM FEW190 BKN250 12/09 A3014 RMK AC2CS4 SLP206

More Conditions Fewer Conditions

Pressure 30.14 in
Visibility 30.0 miles
Clouds Few 19000 ft
Mostly Cloudy 25000 ft
Dew Point 50 °F
Humidity 96%
Rainfall 0.00 in
Snow Depth Not available.
UV 0 out of 12
Pollen Not available.
Air Quality Not available.
Flu Activity Not available.
METAR CYVR 270700Z 07004KT 30SM FEW190 BKN250 12/09 A3014 RMK AC2CS4 SLP206

More Conditions Fewer Conditions

10-Day Weather Forecast

Almanac

Astronomy

Mar. 27, 2015 Rise Set
Actual Time
Civil Twilight
Nautical Twilight
Astronomical Twilight
Moon
Length of Visible Light
Length of Day
Tomorrow will be .
, % of the Moon is Illuminated

Today's Extremes

Country Highs Country Lows

Community

WunderPhotos

Upload Photos

1,808,701 photos uploaded!

WunderBlogs® & News

Nearby

Air Quality

  Air Quality AQ Index Pollutant
Not available.

Snow Depth

Station Depth Elevation

Earthquake Activity

City Distance Mag. Time & Date
Minimum magnitude displayed is 2.5.

Coastal Water Temperatures

Place Temperature

Stations

Nearby Weather Stations

Station Location Temp. Windchill Dew Point Humidity Wind Precip. Elev Updated Type